Airfield :
LOGIN :

Register | Disclaimer

   EN    FR    IT 

 










Legend :    VFR   Marginal VFR   IFR   Intensive IFR   Very Intensive IFR
Visi :
Ceiling :
>= 8 km
>= 3000ft
5 to 8 km
1000 to 3000 ft
1500m to 5 km
500 to 1000 ft
800 to 1500m
200 to 500 ft
< 800m
< 200 ft
Symbols :   Thunderstorms  Fog  Heavy snow  Heavy precipitations  Wind > 20 kt
SIGMETs :     Misc.  Thunderstorms  Icing  Turbulence  Mountain Waves  Volcanic Ashes






- Airport Elevation : 512 ft
- IATA code : URO


LFOP - Rouen Vallée de Seine

CURRENT METAR :
  • 280600Z AUTO 21011KT 9999 FEW043 BKN086 08/07 Q1008 TEMPO 21020G30KT 3000 SHRA BKN013 BKN025CB

EXPIRED METARs :
  • 280530Z AUTO 21011KT CAVOK 08/07 Q1008
  • 280500Z AUTO 21012KT CAVOK 08/07 Q1007
  • 280430Z AUTO 21010KT CAVOK 08/07 Q1007
  • 280400Z AUTO 22011KT CAVOK 09/08 Q1007
  • 280330Z AUTO 22010KT 9999 FEW016 09/08 Q1007

TAF TAF LFOP
Valid from the 28 at 06:00 until the 29 at 06:00 UTC


280500Z 2806/2906 21015KT 9999 SCT025
TEMPO 2806/2902 21020G30KT 3000 SHRA BKN013 BKN025CB
ATIS : +33 2 35 80 80 34
Met : +33 2 32 86 52 80



MET'MAP, your aeronautical weather chart ! - Copyright ORBIFLY December 2007 - Disclaimer

ORBIFLY MET'MAP TEAM :

Programming & Development : Alexandra Zaïnal
Concept & original design : Baudouin d'Aumeries
Assistance for programming : Marc-Olivier Méhu
Technical & hardware support : Manuel Goepfert

Contact : metmap@orbifly.com




SOURCES & CREDITS :

   NOAA